Time;durP1;ratioP1;P1;durP2;ratioP2;P2;SDS_P1;SDS_P2;PMS_P1;PMS_P2;Temp;Humidity;BMP_temperature;BMP_pressure;BME280_temperature;BME280_humidity;BME280_pressure;Samples;Min_cycle;Max_cycle;Signal;HPM_P1;HPM_P2
2021/05/26 00:01:41;;;;;;;2.25;0.80;;;11.40;67.70;;;;;;5113242;28;19999;-77
2021/05/26 00:04:08;;;;;;;4.65;1.08;;;11.40;68.60;;;;;;5113310;28;20031;-76
2021/05/26 00:06:34;;;;;;;5.60;1.00;;;11.40;68.80;;;;;;5094966;28;20039;-78
2021/05/26 00:09:00;;;;;;;3.95;1.10;;;11.40;69.00;;;;;;5111699;28;20044;-75
2021/05/26 00:11:26;;;;;;;2.20;0.80;;;11.40;69.10;;;;;;5113015;28;20036;-78
2021/05/26 00:13:53;;;;;;;5.70;1.20;;;11.40;69.10;;;;;;5114709;28;20118;-78
2021/05/26 00:16:20;;;;;;;5.03;0.88;;;11.30;69.20;;;;;;5115267;28;20044;-77
2021/05/26 00:18:46;;;;;;;2.42;0.80;;;11.30;69.20;;;;;;5115636;28;20532;-79
2021/05/26 00:21:13;;;;;;;2.60;1.00;;;11.20;69.50;;;;;;5115223;28;20084;-78
2021/05/26 00:23:39;;;;;;;4.05;1.00;;;11.10;69.60;;;;;;5116483;28;20028;-76
2021/05/26 00:26:06;;;;;;;4.47;0.90;;;11.10;69.90;;;;;;5115333;28;20035;-75
2021/05/26 00:28:32;;;;;;;3.42;1.20;;;11.10;70.00;;;;;;5115383;28;20515;-78
2021/05/26 00:30:59;;;;;;;;;;;11.10;70.00;;;;;;5098867;28;20036;-79
2021/05/26 00:33:26;;;;;;;8.80;1.02;;;11.00;69.30;;;;;;5115198;28;20371;-76
2021/05/26 00:35:53;;;;;;;2.50;0.88;;;11.00;69.40;;;;;;5098145;28;20035;-79
2021/05/26 00:38:20;;;;;;;;;;;10.90;69.20;;;;;;5116885;28;20073;-76
2021/05/26 00:40:49;;;;;;;;;;;10.90;69.40;;;;;;5098733;28;19960;-76
2021/05/26 00:43:17;;;;;;;3.40;1.20;;;10.80;69.10;;;;;;5114940;28;19915;-79
2021/05/26 00:45:44;;;;;;;1.83;0.73;;;10.80;69.60;;;;;;5115057;28;20036;-76
2021/05/26 00:48:11;;;;;;;3.83;1.45;;;10.70;69.90;;;;;;5114893;28;20487;-79
2021/05/26 00:50:39;;;;;;;2.40;0.98;;;10.70;70.20;;;;;;5115194;28;20044;-76
2021/05/26 00:53:27;;;;;;;2.72;0.90;;;10.70;70.10;;;;;;5114720;28;20024;-76
2021/05/26 00:55:53;;;;;;;5.72;1.00;;;10.70;69.90;;;;;;5115021;28;20071;-78
2021/05/26 00:58:21;;;;;;;2.20;1.00;;;10.70;70.20;;;;;;5114812;28;20035;-76
2021/05/26 01:00:47;;;;;;;3.47;1.10;;;10.60;70.20;;;;;;5114686;28;20032;-76
2021/05/26 01:03:14;;;;;;;4.50;0.90;;;10.60;70.40;;;;;;5114533;28;20038;-78
2021/05/26 01:05:39;;;;;;;;;;;10.50;70.40;;;;;;5115352;28;20081;-79
2021/05/26 01:08:06;;;;;;;3.17;1.20;;;10.50;70.10;;;;;;5114093;28;19916;-79
2021/05/26 01:10:33;;;;;;;;;;;10.40;70.30;;;;;;5116170;28;20032;-78
2021/05/26 01:13:00;;;;;;;2.92;1.00;;;10.40;69.90;;;;;;5114436;28;19918;-76
2021/05/26 01:15:26;;;;;;;2.25;0.90;;;10.30;70.20;;;;;;5114440;28;20118;-75
2021/05/26 01:17:53;;;;;;;7.35;1.35;;;10.30;69.90;;;;;;5114413;28;20088;-76
2021/05/26 01:20:38;;;;;;;2.47;0.93;;;10.40;70.60;;;;;;5097343;28;20031;-79
2021/05/26 01:23:04;;;;;;;1.77;0.88;;;10.40;70.70;;;;;;5114022;28;20491;-79
2021/05/26 01:25:30;;;;;;;;;;;10.40;70.60;;;;;;5115467;28;20040;-77
2021/05/26 01:28:15;;;;;;;5.00;1.50;;;10.40;70.30;;;;;;5097356;28;19934;-77
2021/05/26 01:30:43;;;;;;;4.80;1.52;;;10.30;70.40;;;;;;5114217;28;20049;-78
2021/05/26 01:33:09;;;;;;;6.25;2.53;;;10.30;70.40;;;;;;5114064;28;20027;-77
2021/05/26 01:35:40;;;;;;;8.02;1.80;;;10.40;70.40;;;;;;5115237;28;20111;-78
2021/05/26 01:38:06;;;;;;;4.60;1.70;;;10.40;70.40;;;;;;5096811;28;20035;-76
2021/05/26 01:40:32;;;;;;;;;;;10.50;71.40;;;;;;5115607;28;20080;-79
2021/05/26 01:42:59;;;;;;;4.10;1.48;;;10.50;69.50;;;;;;5096866;28;19911;-76
2021/05/26 01:45:25;;;;;;;4.63;1.30;;;10.40;69.60;;;;;;5113931;28;20038;-79
2021/05/26 01:47:51;;;;;;;;;;;10.40;70.60;;;;;;5114343;28;20059;-79
2021/05/26 01:53:06;;;;;;;3.88;1.58;;;10.30;70.00;;;;;;5113806;28;20038;-76
2021/05/26 01:55:35;;;;;;;2.28;1.00;;;10.30;70.60;;;;;;5096584;28;20057;-76
2021/05/26 01:58:01;;;;;;;2.97;1.08;;;10.20;70.80;;;;;;5096553;28;20084;-79
2021/05/26 02:00:28;;;;;;;2.38;1.00;;;10.20;70.90;;;;;;5114774;28;20073;-76
2021/05/26 02:02:54;;;;;;;4.88;1.10;;;10.20;71.10;;;;;;5113587;28;20036;-76
2021/05/26 02:05:21;;;;;;;3.55;1.10;;;10.20;70.60;;;;;;5113682;28;20077;-76
2021/05/26 02:07:48;;;;;;;4.55;1.33;;;10.20;71.20;;;;;;5113094;28;20056;-76
2021/05/26 02:10:17;;;;;;;6.72;1.88;;;10.10;70.60;;;;;;5113416;28;20138;-78
2021/05/26 02:12:45;;;;;;;3.95;1.50;;;10.10;71.20;;;;;;5113223;28;20035;-78
2021/05/26 02:15:14;;;;;;;4.22;1.60;;;10.10;71.20;;;;;;5096299;28;20464;-78
2021/05/26 02:17:41;;;;;;;7.28;1.33;;;10.10;71.30;;;;;;5114497;27;20032;-76
2021/05/26 02:20:11;;;;;;;4.65;1.60;;;10.00;71.00;;;;;;5113230;28;20036;-77
2021/05/26 02:22:37;;;;;;;4.20;1.15;;;10.10;71.20;;;;;;5113236;28;20400;-76
2021/05/26 02:25:04;;;;;;;3.38;1.23;;;10.10;71.20;;;;;;5113062;28;20028;-78
2021/05/26 02:27:30;;;;;;;6.57;1.10;;;10.20;71.00;;;;;;5114266;28;20040;-76
2021/05/26 02:29:57;;;;;;;5.00;1.33;;;10.20;71.00;;;;;;5113172;28;20063;-78
2021/05/26 02:32:24;;;;;;;4.35;1.00;;;10.10;71.20;;;;;;5112931;28;20096;-78
2021/05/26 02:34:50;;;;;;;3.58;0.93;;;10.20;71.20;;;;;;5113004;28;20028;-76
2021/05/26 02:37:16;;;;;;;;;;;10.20;71.10;;;;;;5112487;28;20032;-79
2021/05/26 02:39:44;;;;;;;3.60;1.13;;;10.20;70.20;;;;;;5114225;28;19969;-78
2021/05/26 02:42:10;;;;;;;2.60;1.00;;;10.20;70.80;;;;;;5112690;28;20032;-76
2021/05/26 02:44:36;;;;;;;;;;;10.20;70.90;;;;;;5096339;28;20023;-76
2021/05/26 02:47:02;;;;;;;5.15;2.38;;;10.20;70.10;;;;;;5112697;28;19916;-79
2021/05/26 02:49:29;;;;;;;8.35;4.32;;;10.20;70.90;;;;;;5112733;28;20111;-78
2021/05/26 02:51:55;;;;;;;8.25;3.13;;;10.20;71.10;;;;;;5112633;28;20031;-78
2021/05/26 02:54:21;;;;;;;;;;;10.20;71.30;;;;;;5114477;28;20035;-76
2021/05/26 02:56:47;;;;;;;5.20;1.80;;;10.20;70.40;;;;;;5095607;28;20006;-78
2021/05/26 02:59:13;;;;;;;6.00;1.42;;;10.10;71.20;;;;;;5095578;28;20035;-78
2021/05/26 03:01:39;;;;;;;3.45;1.40;;;10.10;71.40;;;;;;5113730;28;20080;-76
2021/05/26 03:04:06;;;;;;;6.55;2.70;;;10.10;71.40;;;;;;5112570;28;20501;-76
2021/05/26 03:06:32;;;;;;;7.50;3.22;;;10.10;71.50;;;;;;5113581;28;20111;-78
2021/05/26 03:08:58;;;;;;;9.63;3.70;;;10.10;71.50;;;;;;5112049;28;20043;-76
2021/05/26 03:11:25;;;;;;;5.80;2.15;;;10.10;71.70;;;;;;5112367;28;20039;-79
2021/05/26 03:13:51;;;;;;;6.32;2.00;;;10.10;71.80;;;;;;5113534;28;20145;-76
2021/05/26 03:16:17;;;;;;;3.08;1.20;;;10.10;72.00;;;;;;5112394;28;20047;-78
2021/05/26 03:18:46;;;;;;;4.75;1.27;;;10.00;72.00;;;;;;5112173;28;20035;-78
2021/05/26 03:21:13;;;;;;;5.43;1.25;;;10.10;72.30;;;;;;5095641;28;20050;-75
2021/05/26 03:23:41;;;;;;;8.63;1.33;;;10.00;72.20;;;;;;5112334;28;20131;-79
2021/05/26 03:26:07;;;;;;;4.10;1.38;;;10.10;72.50;;;;;;5112052;28;20083;-76
2021/05/26 03:28:34;;;;;;;;;;;10.10;72.60;;;;;;5114013;28;20062;-78
2021/05/26 03:31:00;;;;;;;5.68;1.30;;;10.00;72.00;;;;;;5112264;28;19916;-76
2021/05/26 03:33:27;;;;;;;4.05;1.10;;;10.00;72.00;;;;;;5112175;28;20032;-76
2021/05/26 03:35:53;;;;;;;4.85;1.30;;;9.90;71.80;;;;;;5112328;28;20039;-79
2021/05/26 03:38:19;;;;;;;;;;;10.00;72.20;;;;;;5112766;28;20039;-79
2021/05/26 03:40:45;;;;;;;5.03;1.20;;;9.90;71.40;;;;;;5112197;28;19957;-76
2021/05/26 03:43:11;;;;;;;;;;;9.90;72.00;;;;;;5112477;28;20028;-79
2021/05/26 03:45:38;;;;;;;3.97;1.45;;;9.90;71.20;;;;;;5112128;28;20011;-77
2021/05/26 03:48:05;;;;;;;5.18;1.10;;;9.90;71.60;;;;;;5113783;28;20038;-76
2021/05/26 03:50:31;;;;;;;6.30;1.30;;;9.90;71.40;;;;;;5116005;28;20548;-76
2021/05/26 03:52:58;;;;;;;4.97;1.20;;;10.00;71.60;;;;;;5115780;28;20480;-79
2021/05/26 03:55:25;;;;;;;;;;;10.00;71.60;;;;;;5117856;28;20039;-78
2021/05/26 03:57:51;;;;;;;4.50;1.60;;;10.00;71.20;;;;;;5116131;28;19912;-77
2021/05/26 04:00:37;;;;;;;3.72;1.33;;;9.90;71.40;;;;;;5115861;28;20039;-79
2021/05/26 04:03:04;;;;;;;2.45;1.10;;;10.00;71.80;;;;;;5098762;28;20028;-79
2021/05/26 04:05:30;;;;;;;;;;;10.00;71.70;;;;;;5117607;27;20070;-77
2021/05/26 04:07:56;;;;;;;4.45;1.00;;;10.00;71.40;;;;;;5115516;28;19915;-76
2021/05/26 04:10:22;;;;;;;6.20;1.05;;;10.00;71.70;;;;;;5116032;28;20530;-75
2021/05/26 04:12:48;;;;;;;2.67;0.95;;;10.10;71.80;;;;;;5117052;28;20046;-77
2021/05/26 04:15:15;;;;;;;5.63;1.20;;;10.10;72.00;;;;;;5098655;28;20043;-79
2021/05/26 04:17:41;;;;;;;2.80;1.00;;;10.00;71.50;;;;;;5116923;28;20031;-78
2021/05/26 04:20:08;;;;;;;4.03;1.17;;;10.10;72.40;;;;;;5098546;28;20038;-76
2021/05/26 04:22:35;;;;;;;6.97;1.20;;;10.10;72.30;;;;;;5115430;28;20035;-79
2021/05/26 04:25:04;;;;;;;13.77;7.93;;;10.20;72.40;;;;;;5115598;28;20611;-78
2021/05/26 04:27:30;;;;;;;16.88;4.80;;;10.20;72.50;;;;;;5098497;28;20031;-76
2021/05/26 04:29:58;;;;;;;11.63;2.72;;;10.10;72.80;;;;;;5098438;28;20126;-76
2021/05/26 04:32:24;;;;;;;7.72;3.53;;;10.10;73.00;;;;;;5098616;28;20085;-79
2021/05/26 04:34:50;;;;;;;;;;;10.10;73.10;;;;;;5098949;28;20036;-76
2021/05/26 04:37:17;;;;;;;6.10;2.88;;;10.10;72.30;;;;;;5115234;28;19916;-76
2021/05/26 04:40:03;;;;;;;3.92;1.40;;;10.00;73.40;;;;;;5098222;28;20023;-76
2021/05/26 04:42:29;;;;;;;3.17;1.30;;;10.00;73.80;;;;;;5115131;28;20377;-78
2021/05/26 04:44:55;;;;;;;;;;;10.00;73.90;;;;;;5115704;28;20106;-78
2021/05/26 04:47:22;;;;;;;2.83;1.20;;;10.00;73.10;;;;;;5116336;28;19919;-78
2021/05/26 04:49:48;;;;;;;3.17;1.30;;;10.00;73.30;;;;;;5114568;28;20544;-77
2021/05/26 04:52:14;;;;;;;;;;;10.00;74.20;;;;;;5113206;28;20092;-74
2021/05/26 04:54:41;;;;;;;4.97;1.42;;;10.00;73.80;;;;;;5114530;28;19922;-74
2021/05/26 04:57:07;;;;;;;4.45;1.38;;;10.00;74.30;;;;;;5114568;28;20031;-73
2021/05/26 04:59:33;;;;;;;5.28;1.75;;;10.00;75.10;;;;;;5096427;28;20063;-73
2021/05/26 05:02:00;;;;;;;9.50;1.35;;;10.00;75.20;;;;;;5114434;28;20082;-73
2021/05/26 05:04:26;;;;;;;3.67;1.23;;;10.10;75.10;;;;;;5115852;28;20038;-73
2021/05/26 05:06:55;;;;;;;3.22;1.13;;;10.20;76.10;;;;;;5114363;28;20056;-73
2021/05/26 05:09:21;;;;;;;3.00;1.13;;;10.20;75.40;;;;;;5115379;28;20119;-73
2021/05/26 05:11:48;;;;;;;;;;;10.20;75.40;;;;;;5114905;28;20027;-73
2021/05/26 05:14:14;;;;;;;4.10;1.40;;;10.30;74.70;;;;;;5114262;28;20279;-73
2021/05/26 05:16:40;;;;;;;3.40;1.45;;;10.30;75.20;;;;;;5115468;28;20114;-73
2021/05/26 05:19:06;;;;;;;5.15;1.38;;;10.30;75.30;;;;;;5115169;28;20483;-73
2021/05/26 05:21:32;;;;;;;4.75;1.98;;;10.40;75.10;;;;;;5113958;28;20126;-73
2021/05/26 05:23:58;;;;;;;;;;;10.50;75.30;;;;;;5114636;28;20046;-73
2021/05/26 05:26:24;;;;;;;3.35;1.40;;;10.50;74.40;;;;;;5114057;28;19915;-73
2021/05/26 05:28:51;;;;;;;3.72;1.38;;;10.60;74.80;;;;;;5131071;27;20122;-73
2021/05/26 05:31:17;;;;;;;4.00;1.40;;;10.60;74.90;;;;;;5113847;28;20545;-73
2021/05/26 05:33:43;;;;;;;3.08;1.30;;;10.70;74.90;;;;;;5113776;28;20035;-73
2021/05/26 05:36:09;;;;;;;;;;;10.80;74.60;;;;;;5115598;28;20032;-73
2021/05/26 05:38:36;;;;;;;4.35;1.00;;;10.80;74.30;;;;;;5113756;28;19916;-73
2021/05/26 05:41:03;;;;;;;3.40;1.20;;;10.90;74.00;;;;;;5096583;28;20040;-73
2021/05/26 05:43:29;;;;;;;4.03;1.35;;;10.90;74.00;;;;;;5113414;28;20426;-73
2021/05/26 05:45:56;;;;;;;3.45;1.30;;;11.10;73.80;;;;;;5130698;27;20023;-73
2021/05/26 05:48:22;;;;;;;;;;;11.20;73.80;;;;;;5131136;27;20576;-73
2021/05/26 05:50:48;;;;;;;2.47;1.13;;;11.20;72.80;;;;;;5113437;28;19926;-73
2021/05/26 05:53:14;;;;;;;;;;;11.30;73.10;;;;;;5130932;27;20024;-73
2021/05/26 05:55:40;;;;;;;4.55;1.42;;;11.40;72.20;;;;;;5096407;28;19916;-73
2021/05/26 05:58:10;;;;;;;3.15;1.17;;;11.50;72.60;;;;;;5114501;28;20061;-74
2021/05/26 06:00:38;;;;;;;3.25;1.33;;;11.60;72.50;;;;;;5113263;28;20046;-73
2021/05/26 06:03:04;;;;;;;2.70;1.17;;;11.70;72.30;;;;;;5114350;28;20111;-73
2021/05/26 06:05:32;;;;;;;3.72;1.30;;;11.80;72.00;;;;;;5113197;28;20027;-73
2021/05/26 06:07:58;;;;;;;3.95;1.30;;;11.80;71.70;;;;;;5112796;28;20060;-74
2021/05/26 06:10:24;;;;;;;3.95;1.40;;;12.00;71.50;;;;;;5112928;28;20039;-73
2021/05/26 06:12:54;;;;;;;;;;;12.00;71.50;;;;;;5113694;28;20028;-73
2021/05/26 06:15:21;;;;;;;3.70;1.10;;;12.10;71.40;;;;;;5113260;28;20425;-73
2021/05/26 06:17:47;;;;;;;2.28;1.08;;;12.20;70.80;;;;;;5113033;28;20039;-73
2021/05/26 06:20:13;;;;;;;3.13;1.30;;;12.30;70.60;;;;;;5113070;28;20057;-73
2021/05/26 06:22:40;;;;;;;5.38;1.60;;;12.40;69.50;;;;;;5114121;28;20145;-74
2021/05/26 06:25:07;;;;;;;3.83;1.50;;;12.60;69.80;;;;;;5114392;28;20023;-73
2021/05/26 06:27:33;;;;;;;6.55;1.80;;;12.70;69.30;;;;;;5112764;28;20564;-73
2021/05/26 06:30:00;;;;;;;5.65;1.83;;;12.90;69.30;;;;;;5095868;28;20024;-73
2021/05/26 06:32:26;;;;;;;3.50;1.52;;;13.00;68.90;;;;;;5112884;28;20593;-73
2021/05/26 06:34:52;;;;;;;4.35;1.52;;;13.10;68.80;;;;;;5113730;28;20059;-73
2021/05/26 06:37:18;;;;;;;7.63;1.95;;;13.30;68.70;;;;;;5112583;28;20071;-73
2021/05/26 06:39:44;;;;;;;;;;;13.40;67.90;;;;;;5114620;28;20028;-73
2021/05/26 06:42:10;;;;;;;6.20;1.95;;;13.50;68.00;;;;;;5112485;28;19920;-73
2021/05/26 06:44:37;;;;;;;3.72;1.45;;;13.60;67.40;;;;;;5129686;27;20023;-73
2021/05/26 06:47:03;;;;;;;4.18;1.45;;;13.70;67.10;;;;;;5113682;28;20040;-73
2021/05/26 06:49:30;;;;;;;;;;;13.90;66.50;;;;;;5112851;28;20081;-73
2021/05/26 06:51:57;;;;;;;2.60;1.00;;;14.00;66.50;;;;;;5112361;28;20376;-73
2021/05/26 06:54:24;;;;;;;4.38;1.27;;;14.20;65.80;;;;;;5112238;28;20062;-74
2021/05/26 06:56:50;;;;;;;;;;;14.30;65.70;;;;;;5114167;28;20046;-74
2021/05/26 06:59:16;;;;;;;2.65;0.90;;;14.50;65.30;;;;;;5113324;28;19911;-73
2021/05/26 07:01:42;;;;;;;;;;;14.70;65.00;;;;;;5129785;27;20046;-74
2021/05/26 07:04:08;;;;;;;3.58;0.85;;;14.90;65.30;;;;;;5112060;28;19915;-73
2021/05/26 07:06:35;;;;;;;4.68;1.60;;;15.10;64.00;;;;;;5112220;28;20040;-73
2021/05/26 07:09:01;;;;;;;4.55;1.17;;;15.10;62.60;;;;;;5111974;28;20518;-73
2021/05/26 07:11:27;;;;;;;;;;;15.40;63.10;;;;;;5112780;28;20032;-73
2021/05/26 07:13:56;;;;;;;3.25;1.25;;;15.50;62.60;;;;;;5111950;28;19916;-73
2021/05/26 07:16:22;;;;;;;2.03;1.00;;;15.70;61.50;;;;;;5112058;28;20448;-74
2021/05/26 07:18:49;;;;;;;2.83;1.23;;;15.80;61.10;;;;;;5113313;28;20050;-73
2021/05/26 07:21:15;;;;;;;;;;;15.80;61.20;;;;;;5112377;28;20453;-73
2021/05/26 07:23:42;;;;;;;8.52;1.52;;;15.90;61.70;;;;;;5094419;28;19968;-73
2021/05/26 07:26:08;;;;;;;2.80;1.40;;;15.90;60.50;;;;;;5094940;28;20036;-73
2021/05/26 07:28:36;;;;;;;3.10;1.40;;;15.90;59.30;;;;;;5111974;28;20066;-73
2021/05/26 07:31:04;;;;;;;4.25;1.55;;;16.00;59.10;;;;;;5111926;28;20073;-73
2021/05/26 07:33:30;;;;;;;6.75;1.30;;;16.10;59.00;;;;;;5111949;28;20177;-74
2021/05/26 07:35:56;;;;;;;7.03;4.30;;;16.10;58.30;;;;;;5111918;28;20038;-74
2021/05/26 07:38:23;;;;;;;3.13;1.45;;;16.30;59.00;;;;;;5111779;28;20433;-73
2021/05/26 07:40:49;;;;;;;;;;;16.30;58.70;;;;;;5112390;28;20460;-73
2021/05/26 07:43:15;;;;;;;9.00;4.40;;;16.40;58.40;;;;;;5112970;28;19915;-73
2021/05/26 07:45:41;;;;;;;;;;;16.60;57.60;;;;;;5113596;28;20114;-73
2021/05/26 07:48:08;;;;;;;3.42;1.38;;;16.60;57.10;;;;;;5111480;28;19911;-73
2021/05/26 07:50:35;;;;;;;3.33;1.40;;;16.70;56.40;;;;;;5094738;28;20156;-73
2021/05/26 07:53:03;;;;;;;5.03;1.45;;;16.70;56.80;;;;;;5112801;28;20484;-73
2021/05/26 07:55:31;;;;;;;3.35;1.00;;;16.70;56.10;;;;;;5111761;28;20377;-75
2021/05/26 07:57:57;;;;;;;3.58;1.40;;;16.80;56.00;;;;;;5111629;28;20041;-73
2021/05/26 08:00:24;;;;;;;3.92;1.05;;;16.80;55.40;;;;;;5094578;28;20119;-74
2021/05/26 08:02:51;;;;;;;2.85;1.00;;;16.90;55.00;;;;;;5111663;28;20070;-73
2021/05/26 08:05:18;;;;;;;2.75;0.82;;;17.00;54.70;;;;;;5111720;28;20035;-73
2021/05/26 08:07:45;;;;;;;3.08;0.95;;;17.10;53.80;;;;;;5111365;28;20067;-73
2021/05/26 08:10:12;;;;;;;2.45;1.00;;;17.10;53.10;;;;;;5094663;28;20036;-73
2021/05/26 08:12:39;;;;;;;3.60;0.88;;;17.20;51.90;;;;;;5112860;28;20031;-73
2021/05/26 08:15:07;;;;;;;2.17;0.98;;;17.30;52.00;;;;;;5113082;28;20036;-73
2021/05/26 08:17:34;;;;;;;3.35;1.20;;;17.30;51.60;;;;;;5094531;28;20077;-73
2021/05/26 08:20:01;;;;;;;6.07;1.45;;;17.30;51.70;;;;;;5111618;28;20515;-73
2021/05/26 08:22:28;;;;;;;4.75;0.93;;;17.50;52.40;;;;;;5111564;28;20047;-74
2021/05/26 08:24:55;;;;;;;4.18;1.27;;;17.60;51.60;;;;;;5111505;28;20031;-73
2021/05/26 08:27:21;;;;;;;3.05;1.02;;;17.60;51.60;;;;;;5111423;28;20081;-73
2021/05/26 08:29:48;;;;;;;4.57;1.10;;;17.70;51.30;;;;;;5111395;28;20096;-73
2021/05/26 08:32:14;;;;;;;2.67;0.90;;;17.80;51.00;;;;;;5111368;28;20043;-73
2021/05/26 08:34:41;;;;;;;;;;;17.80;50.60;;;;;;5113072;28;20119;-73
2021/05/26 08:37:07;;;;;;;4.13;1.13;;;17.90;50.90;;;;;;5116291;28;19916;-73
2021/05/26 08:39:35;;;;;;;3.45;1.17;;;17.90;50.60;;;;;;5114905;28;20036;-74
2021/05/26 08:42:03;;;;;;;2.88;1.15;;;18.00;51.10;;;;;;5116085;28;20110;-74
2021/05/26 08:44:30;;;;;;;3.22;1.30;;;18.10;50.60;;;;;;5114879;28;20463;-73
2021/05/26 08:46:56;;;;;;;3.47;1.17;;;18.20;50.40;;;;;;5116104;28;20488;-73
2021/05/26 08:49:22;;;;;;;6.45;1.20;;;18.40;50.40;;;;;;5097682;28;20039;-74
2021/05/26 08:51:49;;;;;;;5.75;1.77;;;18.60;49.30;;;;;;5114641;28;20038;-73
2021/05/26 08:54:17;;;;;;;3.85;1.15;;;18.70;49.10;;;;;;5114620;28;20035;-74
2021/05/26 08:56:44;;;;;;;4.13;1.40;;;19.00;47.70;;;;;;5115876;28;20488;-73
2021/05/26 08:59:15;;;;;;;3.78;1.33;;;19.50;47.40;;;;;;5097586;28;20092;-73
2021/05/26 09:02:01;;;;;;;3.55;1.10;;;20.20;46.00;;;;;;5114494;28;20036;-74
2021/05/26 09:04:47;;;;;;;6.22;2.40;;;21.10;45.60;;;;;;5114383;28;20044;-74
2021/05/26 09:10:18;;;;;;;2.70;1.15;;;22.90;42.50;;;;;;5115820;28;20038;-74
2021/05/26 09:12:44;;;;;;;2.83;1.05;;;23.10;40.90;;;;;;5097269;28;20028;-74
2021/05/26 09:15:29;;;;;;;3.55;1.27;;;23.00;40.50;;;;;;5114232;28;20188;-74
2021/05/26 09:17:57;;;;;;;3.63;1.30;;;23.20;41.50;;;;;;5114219;28;20035;-74
2021/05/26 09:20:45;;;;;;;4.03;1.42;;;23.30;40.00;;;;;;5115268;28;20045;-73
2021/05/26 09:23:30;;;;;;;3.63;1.40;;;24.10;39.80;;;;;;5113850;28;20491;-73
2021/05/26 09:26:15;;;;;;;3.40;1.52;;;25.20;37.60;;;;;;5113986;28;20039;-74
2021/05/26 09:28:42;;;;;;;3.30;1.30;;;26.10;36.20;;;;;;5113942;28;20096;-74
2021/05/26 09:31:12;;;;;;;4.30;1.80;;;26.90;33.20;;;;;;5115188;27;20060;-73
2021/05/26 09:33:57;;;;;;;6.60;1.60;;;27.80;32.60;;;;;;5113867;28;20502;-74
2021/05/26 09:36:25;;;;;;;3.55;1.35;;;28.60;32.00;;;;;;5115024;28;20043;-74
2021/05/26 09:39:12;;;;;;;3.78;1.35;;;29.50;30.30;;;;;;5113803;28;20069;-74
2021/05/26 09:41:38;;;;;;;11.52;3.60;;;30.50;30.20;;;;;;5114952;27;20435;-74
2021/05/26 09:44:10;;;;;;;3.72;1.20;;;30.90;28.80;;;;;;5114897;27;20032;-71
2021/05/26 09:46:43;;;;;;;4.95;1.30;;;31.70;27.20;;;;;;5096680;28;20040;-73
2021/05/26 09:49:17;;;;;;;4.05;1.70;;;32.60;26.50;;;;;;5113524;28;20050;-74
2021/05/26 09:52:02;;;;;;;3.90;1.85;;;33.30;25.50;;;;;;5113588;28;20081;-74
2021/05/26 09:54:32;;;;;;;4.00;1.60;;;33.50;26.00;;;;;;5113546;28;20056;-74
2021/05/26 09:57:17;;;;;;;3.13;1.70;;;34.40;24.30;;;;;;5113440;28;20119;-74
2021/05/26 09:59:44;;;;;;;3.58;1.40;;;34.80;23.80;;;;;;5114927;27;20028;-74
2021/05/26 10:02:11;;;;;;;4.93;1.50;;;35.20;22.70;;;;;;5113319;28;20491;-74
2021/05/26 10:04:42;;;;;;;6.43;1.40;;;35.80;22.30;;;;;;5114774;28;20035;-74
2021/05/26 10:07:10;;;;;;;4.43;1.10;;;36.30;21.90;;;;;;5113322;28;20046;-73
2021/05/26 10:09:38;;;;;;;2.83;1.40;;;37.00;21.70;;;;;;5113374;28;20055;-74
2021/05/26 10:12:05;;;;;;;3.90;1.50;;;37.40;21.10;;;;;;5113028;28;20172;-74
2021/05/26 10:14:36;;;;;;;3.75;1.20;;;38.00;20.30;;;;;;5113229;28;20035;-73
2021/05/26 10:17:03;;;;;;;1.83;1.00;;;38.70;19.70;;;;;;5113055;28;20089;-73
2021/05/26 10:19:30;;;;;;;4.00;1.70;;;38.90;18.70;;;;;;5113058;28;20027;-74
2021/05/26 10:21:57;;;;;;;2.90;1.17;;;38.70;18.90;;;;;;5095847;28;20046;-74
2021/05/26 10:24:24;;;;;;;4.35;1.40;;;38.90;18.40;;;;;;5113012;28;20052;-74
2021/05/26 10:29:40;;;;;;;4.72;1.45;;;39.60;18.10;;;;;;5113127;28;20035;-75
2021/05/26 10:32:28;;;;;;;4.50;1.48;;;40.00;17.40;;;;;;5113850;28;20080;-74
2021/05/26 10:34:54;;;;;;;6.22;1.58;;;39.20;18.60;;;;;;5114300;28;20035;-74
2021/05/26 10:37:55;;;;;;;5.18;1.27;;;39.80;17.50;;;;;;5113909;28;20031;-74
2021/05/26 10:40:31;;;;;;;2.35;1.20;;;40.70;17.60;;;;;;5112861;28;20038;-74
2021/05/26 10:43:21;;;;;;;3.55;1.25;;;41.10;16.50;;;;;;5113686;28;20041;-75
2021/05/26 10:45:50;;;;;;;4.13;1.73;;;41.60;16.70;;;;;;5129521;27;20058;-73
2021/05/26 10:48:54;;;;;;;6.05;1.38;;;42.20;15.90;;;;;;5112344;28;20111;-73
2021/05/26 10:51:20;;;;;;;5.50;1.25;;;40.80;16.30;;;;;;5112406;28;20045;-74
2021/05/26 10:53:47;;;;;;;2.88;1.30;;;41.00;15.70;;;;;;5113677;28;20036;-74
2021/05/26 10:56:58;;;;;;;2.80;1.23;;;41.60;14.70;;;;;;5113509;27;20036;-73
2021/05/26 10:59:24;;;;;;;3.22;1.20;;;42.30;15.90;;;;;;5112414;28;20457;-75
2021/05/26 11:02:10;;;;;;;5.43;1.50;;;42.80;15.20;;;;;;5113436;28;20080;-75
2021/05/26 11:04:39;;;;;;;7.60;2.33;;;43.30;14.80;;;;;;5112323;28;20426;-73
2021/05/26 11:07:29;;;;;;;5.40;1.40;;;43.60;14.40;;;;;;5112181;28;20081;-75
2021/05/26 11:10:05;;;;;;;5.07;1.50;;;42.60;14.90;;;;;;5113826;28;20028;-73
2021/05/26 11:12:56;;;;;;;7.53;3.17;;;40.80;15.20;;;;;;5112155;28;20054;-72
2021/05/26 11:15:45;;;;;;;2.72;1.75;;;41.60;15.60;;;;;;5129079;27;20484;-75
2021/05/26 11:21:00;;;;;;;4.30;1.38;;;42.80;14.30;;;;;;5112364;28;20036;-75
2021/05/26 11:23:26;;;;;;;2.38;1.00;;;43.80;13.80;;;;;;5113289;28;20032;-75
2021/05/26 11:25:56;;;;;;;4.72;2.00;;;44.40;13.90;;;;;;5112058;28;20035;-75
2021/05/26 11:28:50;;;;;;;3.55;1.42;;;44.70;13.10;;;;;;5111842;28;20616;-75
2021/05/26 11:31:16;;;;;;;3.65;1.30;;;45.30;13.70;;;;;;5113137;28;20087;-75
2021/05/26 11:34:07;;;;;;;2.97;1.30;;;45.60;12.90;;;;;;5111812;28;20479;-75
2021/05/26 11:36:55;;;;;;;6.95;1.27;;;46.10;13.10;;;;;;5112093;28;20063;-75
2021/05/26 11:39:28;;;;;;;3.83;1.33;;;46.20;12.70;;;;;;5094941;28;20389;-74
2021/05/26 11:42:11;;;;;;;6.05;1.35;;;46.30;12.70;;;;;;5111902;28;20122;-75
2021/05/26 11:44:58;;;;;;;3.53;1.20;;;46.60;12.70;;;;;;5113406;28;20061;-75
2021/05/26 11:47:36;;;;;;;2.78;1.65;;;46.80;11.90;;;;;;5128910;28;20031;-75
2021/05/26 11:50:45;;;;;;;3.40;1.30;;;47.30;11.80;;;;;;5113331;28;20031;-73
2021/05/26 11:53:13;;;;;;;3.22;1.50;;;47.70;12.00;;;;;;5112857;28;20031;-75
2021/05/26 11:55:43;;;;;;;3.85;1.30;;;47.80;10.90;;;;;;5111730;28;20555;-75
2021/05/26 11:58:09;;;;;;;3.53;1.65;;;47.70;10.20;;;;;;5094578;28;20035;-72
2021/05/26 12:00:37;;;;;;;9.20;1.88;;;47.50;10.50;;;;;;5111765;28;20050;-74
2021/05/26 12:03:21;;;;;;;5.63;1.98;;;47.90;10.50;;;;;;5111481;28;20057;-72
2021/05/26 12:05:51;;;;;;;3.88;1.50;;;48.40;10.50;;;;;;5111923;28;20032;-75
2021/05/26 12:08:55;;;;;;;2.05;1.40;;;48.80;10.40;;;;;;5112210;28;20048;-75
2021/05/26 12:11:22;;;;;;;4.15;1.58;;;49.00;10.80;;;;;;5116725;28;20608;-75
2021/05/26 12:13:50;;;;;;;2.22;1.30;;;49.40;10.00;;;;;;5132569;27;20498;-75
2021/05/26 12:16:20;;;;;;;2.45;1.55;;;49.70;9.30;;;;;;5115335;28;20039;-75
2021/05/26 12:19:05;;;;;;;2.72;1.65;;;49.70;9.70;;;;;;5115422;28;20067;-74
2021/05/26 12:21:32;;;;;;;4.72;1.40;;;49.80;9.70;;;;;;5115318;28;20035;-75
2021/05/26 12:24:18;;;;;;;2.53;1.33;;;49.90;9.90;;;;;;5116594;28;20036;-74
2021/05/26 12:27:03;;;;;;;6.32;1.42;;;49.80;9.90;;;;;;5115313;28;20051;-75
2021/05/26 12:29:30;;;;;;;1.95;1.48;;;49.80;9.70;;;;;;5116620;28;20043;-75
2021/05/26 12:31:58;;;;;;;2.40;1.50;;;49.70;9.30;;;;;;5116309;28;20039;-75
2021/05/26 12:34:27;;;;;;;4.32;1.60;;;49.80;9.20;;;;;;5116418;28;20536;-75
2021/05/26 12:36:54;;;;;;;3.70;1.42;;;49.80;9.20;;;;;;5116272;28;20044;-75
2021/05/26 12:39:58;;;;;;;3.28;1.70;;;49.60;9.30;;;;;;5116451;28;20071;-75
2021/05/26 12:42:43;;;;;;;2.08;1.40;;;49.60;9.90;;;;;;5116070;28;20116;-75
2021/05/26 12:45:30;;;;;;;3.20;1.38;;;50.00;9.70;;;;;;5114898;28;20036;-75
2021/05/26 12:47:59;;;;;;;2.60;1.42;;;49.80;9.50;;;;;;5116038;28;20077;-75
2021/05/26 12:50:28;;;;;;;2.83;1.52;;;50.00;9.60;;;;;;5115550;28;20088;-75
2021/05/26 12:53:07;;;;;;;3.70;1.50;;;50.10;9.20;;;;;;5116008;28;20064;-75
2021/05/26 12:55:34;;;;;;;2.25;1.65;;;50.20;9.40;;;;;;5116054;28;20032;-75
2021/05/26 12:58:04;;;;;;;3.10;1.73;;;50.40;8.80;;;;;;5114560;28;20074;-75
2021/05/26 13:00:31;;;;;;;4.03;1.42;;;50.30;9.10;;;;;;5115855;28;20035;-75
2021/05/26 13:03:22;;;;;;;2.80;1.60;;;50.20;8.40;;;;;;5097333;28;20035;-75
2021/05/26 13:05:52;;;;;;;3.20;1.90;;;50.00;9.40;;;;;;5114626;28;20107;-75
2021/05/26 13:08:21;;;;;;;2.60;1.50;;;50.30;8.80;;;;;;5114115;28;20051;-75
2021/05/26 13:10:53;;;;;;;4.03;1.50;;;50.30;8.90;;;;;;5114413;28;20062;-75
2021/05/26 13:13:47;;;;;;;3.17;1.40;;;49.80;8.60;;;;;;5115510;28;20035;-74
2021/05/26 13:16:15;;;;;;;2.42;1.60;;;49.60;9.00;;;;;;5114198;28;20098;-75
2021/05/26 13:18:42;;;;;;;2.92;1.60;;;49.60;8.80;;;;;;5115550;28;20043;-74
2021/05/26 13:21:08;;;;;;;2.97;1.48;;;49.60;8.90;;;;;;5114452;28;20027;-75
2021/05/26 13:23:35;;;;;;;2.60;1.30;;;49.40;9.40;;;;;;5114095;28;20035;-75